Colony, Missouri
Current Conditions -  °F | °C
As of 10:02 PM on Sunday 23 Nov 2014 (Local Time) from KIRK Reporting Station
Light Rain Light Rain  
Wind Chill: 37°   Ceiling: 800
Heat Index: 44°   Visibility: 4mi
Dew Point: 42°   Wind: 15mph
Humidity: 93%   Direction: 320°NW
Pressure: 29.32"   Gusts: 23mph
Location:  40.3469°N, 92.1083°W
Report Text: KIRK 240402Z AUTO 32013G20KT 4SM -RA BR BKN008 BKN014 OVC021 07/06 A2932 RMK AO2 P0000 T00670056
Loading
Personal Weather Stations






























Interactive Weather Map New forecast layout! Learn more

10-Day Weather Forecast

Advertisements
Track Severe Weather on mobile